Time;durP1;ratioP1;P1;durP2;ratioP2;P2;SDS_P1;SDS_P2;PMS_P1;PMS_P2;Temp;Humidity;BMP_temperature;BMP_pressure;BME280_temperature;BME280_humidity;BME280_pressure;Samples;Min_cycle;Max_cycle;Signal;HPM_P1;HPM_P2
2023/12/12 00:01:48;;;;;;;14.53;5.60;;;;;;;8.42;86.52;100522.50;5053805;28;20186;-69
2023/12/12 00:04:15;;;;;;;7.13;5.00;;;;;;;8.41;86.79;100525.28;5053706;28;20662;-69
2023/12/12 00:06:42;;;;;;;8.87;5.27;;;;;;;8.42;86.51;100526.97;5053947;28;20529;-69
2023/12/12 00:09:08;;;;;;;11.13;5.53;;;;;;;8.43;86.15;100524.19;5053517;28;20631;-70
2023/12/12 00:11:35;;;;;;;12.03;6.03;;;;;;;8.39;86.06;100524.59;5053598;28;20249;-70
2023/12/12 00:14:01;;;;;;;9.67;5.00;;;;;;;8.43;85.84;100537.50;5053827;28;20183;-70
2023/12/12 00:16:28;;;;;;;7.77;6.07;;;;;;;8.45;85.91;100526.69;5053880;28;20191;-72
2023/12/12 00:18:54;;;;;;;10.77;5.83;;;;;;;8.43;85.85;100518.00;5053859;28;20217;-72
2023/12/12 00:21:21;;;;;;;8.20;5.43;;;;;;;8.38;86.22;100523.75;5053453;28;20555;-72
2023/12/12 00:23:48;;;;;;;11.87;6.60;;;;;;;8.38;86.18;100521.09;5053587;28;20206;-72
2023/12/12 00:26:15;;;;;;;8.30;6.07;;;;;;;8.41;85.67;100523.47;5053784;28;20187;-73
2023/12/12 00:28:41;;;;;;;7.43;4.90;;;;;;;8.42;85.47;100524.31;5053466;28;20215;-72
2023/12/12 00:31:08;;;;;;;11.07;5.17;;;;;;;8.37;85.28;100515.91;5053808;28;20226;-72
2023/12/12 00:33:34;;;;;;;10.93;4.67;;;;;;;8.35;85.05;100517.88;5053291;28;20187;-73
2023/12/12 00:36:01;;;;;;;11.23;4.90;;;;;;;8.31;85.02;100509.34;5053209;28;20187;-73
2023/12/12 00:38:30;;;;;;;6.07;4.90;;;;;;;8.32;84.54;100511.00;5053131;28;20207;-73
2023/12/12 00:40:57;;;;;;;5.30;4.77;;;;;;;8.34;84.55;100508.22;5053430;28;20533;-73
2023/12/12 00:43:24;;;;;;;6.97;4.77;;;;;;;8.35;84.84;100516.06;5053182;28;20183;-73
2023/12/12 00:45:50;;;;;;;7.60;4.90;;;;;;;8.34;84.60;100513.53;5052851;28;20591;-73
2023/12/12 00:48:17;;;;;;;10.80;6.40;;;;;;;8.27;84.77;100514.06;5052933;28;20691;-73
2023/12/12 00:50:45;;;;;;;9.67;4.80;;;;;;;8.36;84.56;100519.56;5053063;28;20191;-73
2023/12/12 00:53:11;;;;;;;8.30;4.53;;;;;;;8.38;84.39;100520.25;5053073;28;20237;-73
2023/12/12 00:55:38;;;;;;;8.23;5.37;;;;;;;8.32;84.93;100520.84;5053013;28;20651;-73
2023/12/12 00:58:05;;;;;;;4.33;4.00;;;;;;;8.35;84.05;100520.56;5052937;28;20191;-72
2023/12/12 01:00:31;;;;;;;8.27;4.53;;;;;;;8.27;84.56;100522.03;5053044;28;20193;-72
2023/12/12 01:02:57;;;;;;;7.07;4.07;;;;;;;8.37;84.02;100515.91;5053444;28;20655;-72
2023/12/12 01:05:24;;;;;;;5.80;5.07;;;;;;;8.34;84.05;100524.19;5052933;28;20241;-72
2023/12/12 01:07:51;;;;;;;13.87;4.30;;;;;;;8.37;84.06;100524.75;5053190;28;20194;-72
2023/12/12 01:10:17;;;;;;;14.50;5.10;;;;;;;8.39;83.79;100521.94;5052988;28;20784;-73
2023/12/12 01:12:44;;;;;;;10.27;4.93;;;;;;;8.40;83.78;100515.63;5052879;28;20180;-73
2023/12/12 01:15:10;;;;;;;6.57;4.97;;;;;;;8.36;84.02;100506.25;5052815;28;20191;-70
2023/12/12 01:17:37;;;;;;;7.80;4.67;;;;;;;8.44;83.63;100514.38;5052853;28;20557;-70
2023/12/12 01:20:07;;;;;;;6.10;4.40;;;;;;;8.39;84.13;100512.13;5052749;28;20215;-70
2023/12/12 01:22:34;;;;;;;14.40;5.17;;;;;;;8.41;83.68;100514.63;5052791;28;20258;-70
2023/12/12 01:25:00;;;;;;;4.33;3.80;;;;;;;8.46;83.46;100512.38;5052726;28;20183;-70
2023/12/12 01:27:27;;;;;;;14.03;4.30;;;;;;;8.48;83.29;100513.94;5052708;28;20196;-70
2023/12/12 01:29:54;;;;;;;8.20;4.70;;;;;;;8.43;83.83;100524.19;5052861;28;20215;-70
2023/12/12 01:32:21;;;;;;;9.30;4.50;;;;;;;8.46;83.49;100517.72;5052965;28;20187;-70
2023/12/12 01:34:47;;;;;;;13.87;3.97;;;;;;;8.37;83.98;100515.91;5052902;28;20187;-70
2023/12/12 01:37:14;;;;;;;9.30;4.27;;;;;;;8.41;84.00;100517.31;5053140;28;20183;-69
2023/12/12 01:39:40;;;;;;;12.63;5.17;;;;;;;8.39;84.04;100517.47;5052524;28;20281;-69
2023/12/12 01:42:07;;;;;;;7.93;3.83;;;;;;;8.35;84.41;100509.91;5052866;28;20191;-69
2023/12/12 01:44:33;;;;;;;21.87;5.00;;;;;;;8.33;84.64;100506.53;5052834;28;20241;-69
2023/12/12 01:47:00;;;;;;;14.60;5.50;;;;;;;8.44;84.07;100514.38;5052832;28;20187;-69
2023/12/12 01:49:27;;;;;;;10.63;4.80;;;;;;;8.33;84.53;100518.03;5052411;28;20258;-69
2023/12/12 01:51:54;;;;;;;8.63;5.10;;;;;;;8.36;84.71;100524.91;5052511;28;20180;-69
2023/12/12 01:54:21;;;;;;;12.90;5.37;;;;;;;8.37;84.52;100523.91;5052742;28;20245;-69
2023/12/12 01:56:51;;;;;;;7.10;5.17;;;;;;;8.38;84.86;100521.09;5055481;28;20195;-69
2023/12/12 01:59:19;;;;;;;10.43;4.73;;;;;;;8.39;84.90;100516.63;5056026;28;20207;-69
2023/12/12 02:01:47;;;;;;;7.27;5.43;;;;;;;8.38;84.76;100514.94;5054779;28;20195;-69
2023/12/12 02:04:14;;;;;;;9.80;5.17;;;;;;;8.31;85.18;100509.34;5055967;28;20187;-69
2023/12/12 02:06:43;;;;;;;7.53;5.57;;;;;;;8.31;85.35;100508.50;5056495;28;20187;-69
2023/12/12 02:09:11;;;;;;;8.67;5.57;;;;;;;8.29;85.62;100508.63;5055768;28;20620;-70
2023/12/12 02:11:37;;;;;;;11.87;6.00;;;;;;;8.31;85.24;100512.00;5056441;28;20266;-70
2023/12/12 02:14:03;;;;;;;8.60;5.50;;;;;;;8.27;85.32;100506.06;5056071;28;20191;-70
2023/12/12 02:16:30;;;;;;;8.70;5.80;;;;;;;8.31;85.44;100505.84;5055635;28;20191;-70
2023/12/12 02:18:56;;;;;;;10.90;6.47;;;;;;;8.26;85.12;100501.75;5055952;28;20742;-70
2023/12/12 02:21:23;;;;;;;11.10;5.13;;;;;;;8.26;85.37;100501.75;5055671;28;20189;-70
2023/12/12 02:23:49;;;;;;;9.57;5.20;;;;;;;8.24;85.23;100509.03;5055641;28;20215;-70
2023/12/12 02:26:16;;;;;;;15.90;5.83;;;;;;;8.38;83.77;100507.78;5055848;28;20228;-70
2023/12/12 02:28:43;;;;;;;10.63;5.93;;;;;;;8.38;83.47;100499.78;5055384;28;20211;-70
2023/12/12 02:31:09;;;;;;;10.20;4.97;;;;;;;8.41;83.55;100502.16;5055496;28;20270;-70
2023/12/12 02:33:36;;;;;;;8.47;5.20;;;;;;;8.31;83.66;100505.84;5055701;28;20207;-70
2023/12/12 02:36:03;;;;;;;10.93;4.57;;;;;;;8.27;84.04;100507.91;5055412;28;20183;-70
2023/12/12 02:38:29;;;;;;;11.53;5.97;;;;;;;8.38;84.14;100515.78;5055310;28;20245;-70
2023/12/12 02:40:55;;;;;;;12.50;5.97;;;;;;;8.40;83.97;100512.97;5055322;28;20241;-70
2023/12/12 02:43:22;;;;;;;7.23;5.70;;;;;;;8.58;83.10;100514.75;5055257;28;20215;-69
2023/12/12 02:45:49;;;;;;;18.67;6.37;;;;;;;8.48;83.49;100515.75;5055777;28;20214;-69
2023/12/12 02:48:16;;;;;;;14.17;5.77;;;;;;;8.52;83.80;100515.34;5055151;28;20615;-70
2023/12/12 02:50:42;;;;;;;18.63;5.80;;;;;;;8.43;84.09;100510.03;5055147;28;20632;-69
2023/12/12 02:53:09;;;;;;;16.83;5.33;;;;;;;8.40;84.60;100513.78;5055022;28;20184;-69
2023/12/12 02:55:35;;;;;;;10.30;5.27;;;;;;;8.43;84.52;100507.34;5055033;28;20187;-69
2023/12/12 02:58:02;;;;;;;14.83;4.83;;;;;;;8.40;84.93;100511.13;5054867;28;20233;-70
2023/12/12 03:00:28;;;;;;;10.33;5.20;;;;;;;8.36;85.47;100506.25;5055164;28;20172;-70
2023/12/12 03:02:54;;;;;;;19.53;5.97;;;;;;;8.40;85.64;100510.31;5055213;28;20176;-70
2023/12/12 03:05:21;;;;;;;9.07;5.10;;;;;;;8.43;85.56;100508.19;5054291;28;20172;-69
2023/12/12 03:07:48;;;;;;;16.60;5.57;;;;;;;8.42;85.70;100513.66;5054324;28;20253;-69
2023/12/12 03:10:14;;;;;;;12.07;6.17;;;;;;;8.32;86.51;100505.69;5054635;28;20232;-69
2023/12/12 03:12:41;;;;;;;12.60;6.67;;;;;;;8.42;86.41;100501.19;5054735;28;20175;-70
2023/12/12 03:15:07;;;;;;;13.27;5.50;;;;;;;8.39;86.27;100505.97;5055078;28;20168;-69
2023/12/12 03:17:34;;;;;;;15.13;4.60;;;;;;;8.39;86.31;100509.47;5055119;28;20245;-69
2023/12/12 03:20:01;;;;;;;22.70;5.67;;;;;;;8.29;86.69;100513.97;5054835;28;20574;-70
2023/12/12 03:22:27;;;;;;;13.60;5.83;;;;;;;8.33;86.87;100511.84;5054907;28;20184;-70
2023/12/12 03:24:55;;;;;;;19.27;5.80;;;;;;;8.25;87.16;100512.53;5054633;28;20192;-69
2023/12/12 03:27:21;;;;;;;13.10;5.43;;;;;;;8.24;87.09;100514.34;5054860;28;20179;-69
2023/12/12 03:29:48;;;;;;;26.53;6.37;;;;;;;8.24;86.87;100513.50;5054265;28;20210;-70
2023/12/12 03:32:14;;;;;;;15.23;5.63;;;;;;;8.14;87.44;100513.53;5054340;28;20192;-69
2023/12/12 03:34:40;;;;;;;15.27;6.40;;;;;;;8.16;87.49;100518.69;5054278;28;20191;-69
2023/12/12 03:37:07;;;;;;;12.87;5.67;;;;;;;8.13;87.67;100513.66;5054511;28;20193;-69
2023/12/12 03:39:35;;;;;;;15.93;5.40;;;;;;;8.17;87.94;100513.25;5054641;28;20214;-69
2023/12/12 03:42:02;;;;;;;8.70;5.63;;;;;;;8.13;88.28;100498.53;5052788;28;20195;-69
2023/12/12 03:44:29;;;;;;;21.17;6.03;;;;;;;8.08;88.78;100502.59;5054382;28;20191;-69
2023/12/12 03:46:55;;;;;;;10.40;5.07;;;;;;;8.06;88.90;100486.75;5054290;28;20195;-69
2023/12/12 03:49:22;;;;;;;18.87;4.80;;;;;;;8.07;88.91;100488.44;5054007;28;20222;-69
2023/12/12 03:51:48;;;;;;;11.83;5.00;;;;;;;8.04;88.88;100483.41;5053959;28;20731;-69
2023/12/12 03:54:15;;;;;;;14.17;6.07;;;;;;;7.99;88.99;100490.97;5054497;28;20176;-69
2023/12/12 03:56:41;;;;;;;16.40;5.20;;;;;;;7.93;89.18;100482.72;5054109;28;20187;-69
2023/12/12 03:59:08;;;;;;;14.50;5.70;;;;;;;7.91;89.36;100490.00;5053772;28;20273;-70
2023/12/12 04:01:34;;;;;;;23.00;5.57;;;;;;;7.93;89.50;100485.38;5053860;28;20558;-70
2023/12/12 04:04:01;;;;;;;29.30;5.67;;;;;;;7.87;89.20;100484.13;5054045;28;20627;-69
2023/12/12 04:06:27;;;;;;;21.67;4.70;;;;;;;7.79;89.40;100476.00;5053988;28;20198;-69
2023/12/12 04:08:54;;;;;;;17.63;5.27;;;;;;;7.79;89.48;100473.34;5054093;28;20547;-69
2023/12/12 04:11:20;;;;;;;16.77;4.53;;;;;;;7.76;90.06;100471.81;5053870;28;20191;-69
2023/12/12 04:13:47;;;;;;;10.80;5.70;;;;;;;7.80;90.04;100472.34;5054149;28;20214;-69
2023/12/12 04:16:13;;;;;;;13.90;5.13;;;;;;;7.75;90.39;100475.44;5053528;28;20312;-69
2023/12/12 04:18:39;;;;;;;29.07;5.53;;;;;;;7.81;90.66;100463.38;5053235;28;20226;-70
2023/12/12 04:21:06;;;;;;;21.73;5.07;;;;;;;7.77;90.61;100467.28;5053971;28;20581;-70
2023/12/12 04:23:35;;;;;;;8.27;4.27;;;;;;;7.78;90.93;100469.81;5053414;28;20187;-70
2023/12/12 04:26:01;;;;;;;14.07;5.23;;;;;;;7.72;90.94;100456.25;5053861;28;20184;-70
2023/12/12 04:28:28;;;;;;;13.60;5.10;;;;;;;7.73;90.90;100456.09;5053520;28;20210;-70
2023/12/12 04:30:54;;;;;;;23.40;6.00;;;;;;;7.75;91.02;100453.31;5053782;28;20295;-69
2023/12/12 04:33:21;;;;;;;15.33;4.30;;;;;;;7.77;90.86;100451.31;5053479;28;20245;-69
2023/12/12 04:35:47;;;;;;;15.37;5.50;;;;;;;7.74;91.41;100447.13;5053505;28;20205;-69
2023/12/12 04:38:14;;;;;;;21.77;6.23;;;;;;;7.77;91.20;100451.31;5053153;28;20187;-69
2023/12/12 04:40:41;;;;;;;11.50;4.87;;;;;;;7.70;91.39;100443.06;5053489;28;20183;-69
2023/12/12 04:43:07;;;;;;;14.60;4.43;;;;;;;7.68;91.02;100439.69;5053443;28;20199;-69
2023/12/12 04:45:34;;;;;;;19.40;5.37;;;;;;;7.65;91.57;100445.31;5053099;28;20190;-69
2023/12/12 04:48:00;;;;;;;14.67;4.50;;;;;;;7.61;91.33;100443.06;5053240;28;20191;-70
2023/12/12 04:50:27;;;;;;;22.97;4.83;;;;;;;7.57;91.76;100439.84;5053491;28;20237;-70
2023/12/12 04:52:53;;;;;;;10.97;5.13;;;;;;;7.54;91.71;100440.13;5053039;28;20237;-70
2023/12/12 04:55:20;;;;;;;19.33;4.83;;;;;;;7.55;91.55;100435.66;5053038;28;20190;-70
2023/12/12 04:57:46;;;;;;;7.07;4.53;;;;;;;7.50;91.67;100432.56;5053726;28;20237;-70
2023/12/12 05:00:14;;;;;;;12.97;5.67;;;;;;;7.52;91.76;100441.25;5053234;28;20553;-70
2023/12/12 05:02:41;;;;;;;9.47;4.30;;;;;;;7.48;91.79;100440.69;5052962;28;20202;-70
2023/12/12 05:05:08;;;;;;;16.97;5.73;;;;;;;7.47;92.05;100446.97;5053364;28;20191;-70
2023/12/12 05:07:35;;;;;;;18.77;5.30;;;;;;;7.49;91.81;100441.53;5051762;28;20179;-70
2023/12/12 05:10:02;;;;;;;23.07;5.40;;;;;;;7.52;92.06;100441.25;5052788;28;20621;-70
2023/12/12 05:12:29;;;;;;;17.23;5.03;;;;;;;7.54;92.13;100431.31;5052838;28;20193;-70
2023/12/12 05:14:58;;;;;;;19.63;4.83;;;;;;;7.51;92.17;100432.41;5053136;28;20187;-70
2023/12/12 05:17:24;;;;;;;30.00;7.03;;;;;;;7.47;92.61;100430.19;5052922;28;20187;-70
2023/12/12 05:19:51;;;;;;;25.30;7.00;;;;;;;7.46;92.48;100431.16;5052747;28;20211;-70
2023/12/12 05:22:18;;;;;;;23.10;6.57;;;;;;;7.42;92.71;100430.63;5053128;28;20187;-69
2023/12/12 05:24:44;;;;;;;15.07;5.07;;;;;;;7.40;92.75;100426.41;5053301;28;20191;-69
2023/12/12 05:27:11;;;;;;;14.47;6.10;;;;;;;7.40;93.27;100423.72;5052736;28;20187;-69
2023/12/12 05:29:37;;;;;;;13.17;6.23;;;;;;;7.42;93.27;100427.97;5052620;28;20265;-70
2023/12/12 05:32:04;;;;;;;31.93;6.33;;;;;;;7.42;93.03;100417.31;5056335;28;20196;-70
2023/12/12 05:34:30;;;;;;;15.20;6.47;;;;;;;7.38;93.20;100418.56;5056534;28;20191;-70
2023/12/12 05:36:57;;;;;;;21.23;6.17;;;;;;;7.37;93.20;100413.38;5056842;28;20183;-70
2023/12/12 05:39:23;;;;;;;22.20;6.13;;;;;;;7.37;93.43;100411.56;5056694;28;20209;-70
2023/12/12 05:41:50;;;;;;;14.43;5.20;;;;;;;7.39;93.12;100411.41;5056452;28;20241;-69
2023/12/12 05:44:16;;;;;;;21.83;6.77;;;;;;;7.35;93.26;100410.84;5056693;28;20252;-69
2023/12/12 05:46:42;;;;;;;14.80;8.70;;;;;;;7.27;92.83;100400.91;5056323;28;20194;-69
2023/12/12 05:49:09;;;;;;;20.53;8.43;;;;;;;7.27;92.95;100408.91;5056668;28;20265;-69
2023/12/12 05:51:37;;;;;;;29.27;8.10;;;;;;;7.21;92.91;100408.63;5056286;28;20270;-69
2023/12/12 05:54:04;;;;;;;15.27;6.33;;;;;;;7.18;93.28;100411.53;5056502;28;20191;-69
2023/12/12 05:56:31;;;;;;;29.03;6.57;;;;;;;7.08;93.01;100410.69;5056150;28;20274;-69
2023/12/12 05:58:58;;;;;;;11.70;5.37;;;;;;;7.03;92.91;100411.09;5056037;28;20203;-69
2023/12/12 06:01:24;;;;;;;24.20;6.43;;;;;;;6.98;93.13;100408.00;5056364;28;20540;-69
2023/12/12 06:03:51;;;;;;;10.97;5.17;;;;;;;6.91;93.17;100417.50;5056806;28;20516;-69
2023/12/12 06:06:20;;;;;;;13.43;6.70;;;;;;;6.84;92.94;100416.34;5055999;28;20237;-69
2023/12/12 06:08:47;;;;;;;11.60;5.83;;;;;;;6.75;92.93;100422.47;5055875;28;20203;-69
2023/12/12 06:11:13;;;;;;;10.70;5.87;;;;;;;6.70;93.14;100417.59;5056362;28;20257;-69
2023/12/12 06:13:39;;;;;;;14.13;5.73;;;;;;;6.69;93.31;100417.72;5056089;28;20237;-69
2023/12/12 06:16:07;;;;;;;15.23;5.80;;;;;;;6.66;93.24;100420.66;5054447;28;20662;-69
2023/12/12 06:18:33;;;;;;;18.30;5.40;;;;;;;6.64;93.29;100407.47;5055607;28;20298;-70
2023/12/12 06:21:00;;;;;;;23.37;7.80;;;;;;;6.65;93.71;100403.88;5055944;28;20191;-70
2023/12/12 06:23:26;;;;;;;15.47;6.43;;;;;;;6.61;93.40;100418.38;5055881;28;20659;-70
2023/12/12 06:25:54;;;;;;;28.93;10.87;;;;;;;6.54;93.85;100419.03;5055769;28;20194;-70
2023/12/12 06:28:20;;;;;;;36.67;9.80;;;;;;;6.54;93.96;100403.09;5055487;28;20222;-70
2023/12/12 06:30:46;;;;;;;25.33;9.77;;;;;;;6.56;94.07;100409.13;5055664;28;20214;-70
2023/12/12 06:33:13;;;;;;;25.57;9.43;;;;;;;6.58;94.20;100407.16;5055493;28;20199;-70
2023/12/12 06:35:40;;;;;;;24.43;8.67;;;;;;;6.58;94.23;100396.53;5054126;28;20215;-70
2023/12/12 06:38:06;;;;;;;23.40;9.27;;;;;;;6.62;94.34;100400.63;5055284;28;20245;-70
2023/12/12 06:40:32;;;;;;;20.10;9.30;;;;;;;6.66;94.33;100389.59;5055660;28;20242;-70
2023/12/12 06:42:59;;;;;;;25.17;9.90;;;;;;;6.67;94.07;100385.97;5054337;28;20223;-70
2023/12/12 06:45:26;;;;;;;13.73;8.67;;;;;;;6.72;94.38;100388.22;5055126;28;20194;-70
2023/12/12 06:47:52;;;;;;;19.83;9.27;;;;;;;6.74;94.36;100380.97;5055427;28;20237;-70
2023/12/12 06:50:18;;;;;;;16.63;8.50;;;;;;;6.77;94.46;100386.84;5055200;28;20583;-70
2023/12/12 06:52:45;;;;;;;26.13;10.40;;;;;;;6.74;94.50;100386.28;5055143;28;20274;-70
2023/12/12 06:55:12;;;;;;;28.23;11.20;;;;;;;6.75;94.94;100380.81;5055034;28;20190;-70
2023/12/12 06:57:39;;;;;;;28.47;9.50;;;;;;;6.78;94.85;100385.03;5055306;28;20198;-70
2023/12/12 07:00:06;;;;;;;17.60;8.80;;;;;;;6.82;95.04;100378.47;5055116;28;20750;-70
2023/12/12 07:02:33;;;;;;;20.63;8.90;;;;;;;6.87;95.19;100381.56;5054870;28;20197;-70
2023/12/12 07:05:00;;;;;;;25.20;8.70;;;;;;;6.89;95.23;100387.56;5054749;28;20202;-70
2023/12/12 07:07:27;;;;;;;30.87;10.17;;;;;;;6.96;95.11;100387.88;5054812;28;20249;-70
2023/12/12 07:09:53;;;;;;;16.23;7.80;;;;;;;6.97;95.45;100390.38;5054580;28;20302;-70
2023/12/12 07:12:25;;;;;;;12.93;8.60;;;;;;;7.00;95.15;100389.28;5055295;28;20623;-70
2023/12/12 07:14:52;;;;;;;21.10;7.30;;;;;;;7.01;95.27;100396.25;5054885;28;20601;-70
2023/12/12 07:17:18;;;;;;;31.10;9.37;;;;;;;6.99;95.25;100393.75;5054503;28;20264;-70
2023/12/12 07:19:45;;;;;;;32.20;10.77;;;;;;;7.00;95.17;100386.63;5054508;28;20622;-70
2023/12/12 07:22:12;;;;;;;30.93;8.80;;;;;;;7.01;95.28;100388.28;5054551;28;20214;-70
2023/12/12 07:24:40;;;;;;;20.43;9.10;;;;;;;7.03;95.55;100387.19;5054922;28;20201;-70
2023/12/12 07:27:06;;;;;;;30.17;10.13;;;;;;;7.05;95.50;100377.22;5054697;28;20674;-70
2023/12/12 07:29:33;;;;;;;34.13;10.10;;;;;;;7.14;95.08;100373.75;5054563;28;20214;-70
2023/12/12 07:31:59;;;;;;;33.23;8.80;;;;;;;7.07;95.48;100379.75;5054950;28;20580;-70
2023/12/12 07:34:26;;;;;;;19.43;9.60;;;;;;;7.04;95.78;100372.91;5054609;28;20184;-70
2023/12/12 07:36:53;;;;;;;17.33;9.13;;;;;;;7.05;95.49;100371.91;5054802;28;20198;-70
2023/12/12 07:39:20;;;;;;;25.73;8.60;;;;;;;7.09;95.93;100375.97;5054163;28;20199;-70
2023/12/12 07:41:47;;;;;;;13.67;7.57;;;;;;;7.09;95.77;100369.81;5054162;28;20264;-70
2023/12/12 07:44:13;;;;;;;27.00;9.07;;;;;;;7.11;95.43;100373.19;5054130;28;20195;-70
2023/12/12 07:46:39;;;;;;;17.53;8.87;;;;;;;7.14;95.64;100370.25;5054324;28;20195;-70
2023/12/12 07:49:07;;;;;;;22.93;8.30;;;;;;;7.20;95.80;100369.72;5053952;28;20269;-70
2023/12/12 07:51:33;;;;;;;25.07;8.00;;;;;;;7.24;95.91;100369.28;5054137;28;20211;-70
2023/12/12 07:54:03;;;;;;;19.53;7.63;;;;;;;7.24;95.62;100369.28;5053863;28;20191;-70
2023/12/12 07:56:30;;;;;;;24.07;7.80;;;;;;;7.29;95.42;100351.13;5054399;28;20659;-70
2023/12/12 07:58:56;;;;;;;29.47;7.93;;;;;;;7.24;95.54;100350.69;5053963;28;20254;-70
2023/12/12 08:01:22;;;;;;;21.47;8.30;;;;;;;7.27;95.60;100345.09;5053803;28;20184;-70
2023/12/12 08:03:49;;;;;;;17.70;7.67;;;;;;;7.27;95.44;100347.75;5053741;28;20683;-70
2023/12/12 08:06:16;;;;;;;25.70;8.37;;;;;;;7.26;95.84;100338.06;5053671;28;20274;-70
2023/12/12 08:08:47;;;;;;;26.80;7.33;;;;;;;7.29;95.67;100339.63;5054215;28;20253;-70
2023/12/12 08:11:14;;;;;;;15.70;7.17;;;;;;;7.33;95.70;100341.03;5053806;28;20215;-70
2023/12/12 08:13:41;;;;;;;19.33;7.47;;;;;;;7.36;95.65;100343.41;5053595;28;20183;-70
2023/12/12 08:16:08;;;;;;;12.93;5.87;;;;;;;7.38;96.01;100333.47;5053828;28;20187;-70
2023/12/12 08:18:37;;;;;;;20.60;9.00;;;;;;;7.43;95.59;100335.69;5053579;28;20301;-70
2023/12/12 08:21:03;;;;;;;32.73;7.50;;;;;;;7.44;95.86;100340.03;5053483;28;20184;-70
2023/12/12 08:23:30;;;;;;;22.43;8.47;;;;;;;7.47;95.63;100332.59;5053957;28;20187;-70
2023/12/12 08:26:00;;;;;;;25.13;8.70;;;;;;;7.52;95.44;100330.38;5053302;28;20237;-70
2023/12/12 08:28:27;;;;;;;18.83;7.43;;;;;;;7.51;95.55;100331.34;5053304;28;20210;-70
2023/12/12 08:30:54;;;;;;;11.60;6.67;;;;;;;7.52;95.36;100330.38;5053215;28;20207;-70
2023/12/12 08:33:20;;;;;;;22.83;7.33;;;;;;;7.54;95.47;100327.56;5053279;28;20675;-70
2023/12/12 08:35:47;;;;;;;30.80;8.63;;;;;;;7.54;95.59;100324.91;5053270;28;20191;-70
2023/12/12 08:38:13;;;;;;;13.47;7.20;;;;;;;7.62;95.53;100327.69;5053177;28;20233;-70
2023/12/12 08:40:40;;;;;;;18.03;7.40;;;;;;;7.64;95.53;100325.72;5053185;28;20191;-70
2023/12/12 08:43:06;;;;;;;18.30;8.10;;;;;;;7.72;95.82;100316.03;5053463;28;20179;-70
2023/12/12 08:45:33;;;;;;;22.50;8.10;;;;;;;7.79;94.99;100317.16;5053137;28;20215;-70
2023/12/12 08:48:00;;;;;;;21.33;8.47;;;;;;;7.76;95.23;100311.31;5053008;28;20202;-70
2023/12/12 08:50:26;;;;;;;22.40;7.63;;;;;;;7.83;94.92;100307.06;5053046;28;20207;-70
2023/12/12 08:52:53;;;;;;;21.07;7.70;;;;;;;7.90;95.20;100308.16;5053025;28;20215;-70
2023/12/12 08:55:19;;;;;;;24.73;7.57;;;;;;;7.98;95.02;100313.59;5053249;28;20253;-70
2023/12/12 08:57:46;;;;;;;17.13;7.23;;;;;;;8.03;94.92;100313.16;5053178;28;20219;-70
2023/12/12 09:00:13;;;;;;;14.60;7.80;;;;;;;8.09;94.69;100310.78;5052977;28;20229;-70
2023/12/12 09:02:40;;;;;;;25.60;7.43;;;;;;;8.11;94.35;100311.44;5052975;28;20199;-70
2023/12/12 09:05:07;;;;;;;17.07;6.50;;;;;;;8.17;94.33;100312.69;5053220;28;20241;-70
2023/12/12 09:07:34;;;;;;;11.50;6.60;;;;;;;8.25;93.89;100310.97;5057310;28;20191;-70
2023/12/12 09:10:04;;;;;;;27.67;7.57;;;;;;;8.36;92.84;100293.19;5057408;28;20214;-70
2023/12/12 09:12:31;;;;;;;18.83;6.13;;;;;;;8.43;92.76;100292.44;5056964;28;20256;-70
2023/12/12 09:14:57;;;;;;;31.83;9.50;;;;;;;8.52;92.80;100288.03;5057064;28;20187;-70
2023/12/12 09:17:23;;;;;;;23.77;7.30;;;;;;;8.54;92.00;100291.38;5056896;28;20203;-70
2023/12/12 09:19:50;;;;;;;26.83;6.30;;;;;;;8.58;91.20;100282.94;5056821;28;20203;-70
2023/12/12 09:22:17;;;;;;;19.97;7.03;;;;;;;8.66;90.09;100291.00;5056824;28;20184;-70
2023/12/12 09:24:43;;;;;;;16.03;7.40;;;;;;;8.73;90.00;100290.44;5056812;28;20191;-70
2023/12/12 09:27:10;;;;;;;29.87;7.83;;;;;;;8.76;89.12;100287.44;5057036;28;20191;-70
2023/12/12 09:29:36;;;;;;;32.70;8.33;;;;;;;8.79;89.28;100284.47;5056698;28;20210;-70
2023/12/12 09:32:03;;;;;;;19.33;6.33;;;;;;;8.90;88.75;100282.44;5056825;28;20207;-70
2023/12/12 09:34:29;;;;;;;21.30;5.70;;;;;;;9.00;87.91;100272.53;5056644;28;20237;-70
2023/12/12 09:36:56;;;;;;;13.03;5.80;;;;;;;9.09;87.76;100274.28;5056548;28;20197;-70
2023/12/12 09:39:22;;;;;;;14.50;5.33;;;;;;;9.16;87.42;100267.34;5057210;28;20211;-70
2023/12/12 09:41:52;;;;;;;14.07;4.70;;;;;;;9.23;86.08;100264.06;5056389;28;20187;-70
2023/12/12 09:44:19;;;;;;;15.17;4.67;;;;;;;9.35;84.91;100246.81;5056415;28;20607;-70
2023/12/12 09:46:46;;;;;;;23.63;5.57;;;;;;;9.37;84.73;100252.84;5056369;28;20183;-70
2023/12/12 09:49:14;;;;;;;6.33;3.90;;;;;;;9.39;84.45;100251.69;5056401;28;20701;-70
2023/12/12 09:51:41;;;;;;;21.27;4.83;;;;;;;9.42;84.10;100247.91;5056476;28;20220;-70
2023/12/12 09:54:10;;;;;;;15.33;4.70;;;;;;;9.50;84.18;100248.78;5056501;28;20233;-70
2023/12/12 09:56:37;;;;;;;24.60;4.90;;;;;;;9.56;83.87;100237.47;5056149;28;20202;-70
2023/12/12 09:59:07;;;;;;;14.67;4.40;;;;;;;9.68;83.42;100232.69;5056355;28;20201;-70
2023/12/12 10:01:34;;;;;;;18.70;4.03;;;;;;;9.80;82.99;100225.28;5056413;28;20163;-70
2023/12/12 10:04:06;;;;;;;13.30;4.23;;;;;;;9.82;81.92;100213.44;5056048;28;20675;-70
2023/12/12 10:06:41;;;;;;;17.00;5.50;;;;;;;10.04;81.82;100212.88;5056052;28;20179;-70
2023/12/12 10:09:11;;;;;;;24.37;5.20;;;;;;;10.19;81.16;100206.94;5056485;28;20210;-70
2023/12/12 10:11:37;;;;;;;12.40;4.90;;;;;;;10.25;80.54;100198.28;5055861;28;20199;-70
2023/12/12 10:14:04;;;;;;;17.53;5.57;;;;;;;10.38;79.28;100185.31;5055839;28;20195;-70
2023/12/12 10:16:30;;;;;;;21.33;5.70;;;;;;;10.49;78.55;100183.16;5055469;28;20241;-70
2023/12/12 10:19:03;;;;;;;14.07;5.93;;;;;;;10.55;78.66;100181.66;5055946;28;20575;-70
2023/12/12 10:21:30;;;;;;;12.70;6.40;;;;;;;10.66;78.48;100185.84;5055976;28;20209;-70
2023/12/12 10:23:57;;;;;;;4.83;4.53;;;;;;;10.74;78.94;100177.81;5055703;28;20191;-68
2023/12/12 10:26:31;;;;;;;18.07;4.50;;;;;;;10.79;76.81;100176.34;5056179;28;20572;-68
2023/12/12 10:28:59;;;;;;;13.27;5.37;;;;;;;10.81;77.02;100163.66;5055807;28;20706;-68
2023/12/12 10:31:26;;;;;;;15.97;4.40;;;;;;;10.90;77.02;100162.66;5055474;28;20616;-68
2023/12/12 10:33:55;;;;;;;17.67;4.83;;;;;;;10.92;75.46;100152.59;5055449;28;20213;-68
2023/12/12 10:36:22;;;;;;;7.63;4.47;;;;;;;10.97;75.57;100150.25;5055375;28;20275;-68
2023/12/12 10:38:50;;;;;;;13.87;4.93;;;;;;;11.04;75.57;100145.06;5056116;28;20211;-68
2023/12/12 10:41:19;;;;;;;10.93;3.57;;;;;;;11.18;75.13;100140.88;5055890;28;20179;-68
2023/12/12 10:43:48;;;;;;;8.47;4.17;;;;;;;11.24;75.27;100130.34;5055338;28;20187;-68
2023/12/12 10:46:17;;;;;;;12.60;3.47;;;;;;;11.39;75.75;100128.63;5055244;28;20179;-68
2023/12/12 10:48:46;;;;;;;14.50;4.53;;;;;;;11.55;75.49;100122.38;5055151;28;20211;-68
2023/12/12 10:51:14;;;;;;;24.20;4.80;;;;;;;11.71;75.42;100114.28;5055063;28;20231;-68
2023/12/12 10:53:42;;;;;;;9.27;3.93;;;;;;;11.89;74.22;100116.75;5055607;28;20249;-68
2023/12/12 10:56:11;;;;;;;11.40;4.07;;;;;;;11.92;71.87;100110.22;5055085;28;20233;-68
2023/12/12 10:58:41;;;;;;;13.57;3.93;;;;;;;11.99;72.61;100105.81;5054887;28;20261;-68
2023/12/12 11:01:10;;;;;;;16.90;3.70;;;;;;;12.01;71.19;100103.81;5055268;28;20199;-68
2023/12/12 11:03:37;;;;;;;30.00;8.37;;;;;;;12.01;70.95;100095.78;5054926;28;20221;-68
2023/12/12 11:06:05;;;;;;;3.87;3.53;;;;;;;12.12;71.86;100093.53;5055135;28;20191;-68
2023/12/12 11:08:33;;;;;;;10.20;3.83;;;;;;;12.18;71.23;100089.28;5054947;28;20281;-68
2023/12/12 11:11:02;;;;;;;5.83;3.30;;;;;;;12.12;70.47;100080.13;5054714;28;20553;-68
2023/12/12 11:13:33;;;;;;;9.50;3.10;;;;;;;12.10;70.52;100075.94;5054791;28;20194;-68
2023/12/12 11:16:01;;;;;;;12.93;2.90;;;;;;;12.13;70.16;100079.13;5055060;28;20179;-68
2023/12/12 11:18:27;;;;;;;9.37;3.50;;;;;;;12.18;70.50;100070.53;5054716;28;20242;-68
2023/12/12 11:20:54;;;;;;;40.93;19.80;;;;;;;12.16;71.23;100069.88;5054831;28;20270;-68
2023/12/12 11:23:42;;;;;;;11.87;3.90;;;;;;;12.00;69.97;100072.66;5054636;28;20234;-69
2023/12/12 11:26:10;;;;;;;6.63;3.93;;;;;;;11.96;69.63;100072.19;5054738;28;20233;-68